Agat, GU (96928)

10:20 PM ChST on February 25, 2017 (GMT +1000)
Chafo CT | | Change Station

Elev 156 ft 13.40 °N, 144.67 °E | Updated 12 seconds ago

Partly Cloudy
Partly Cloudy
79.0 °F
Feels Like 83 °F
N
0.0
Wind Variable Wind from East
Gusts 0.0 mph

Today
High -- | Low -- °F
--% Chance of Precip.
Yesterday
High -- | Low -- °F
Precip. -- in
Pressure 29.90 in
Visibility 10.0 miles
Clouds Few 2300 ft
Scattered Clouds 4000 ft
Heat Index 83 °F
Dew Point 76 °F
Humidity 91%
Rainfall 0.00 in
Snow Depth Not available.
6:39 AM 6:29 PM
Waning Crescent, 1% visible
METAR PGUM 251154Z 07009KT 10SM FEW023 SCT040 27/23 A2992 RMK AO2 SLP124 70002 T02720228 10300 20267 51015
Pressure 29.90 in
Visibility 10.0 miles
Clouds Few 2300 ft
Scattered Clouds 4000 ft
Heat Index 83 °F
Dew Point 76 °F
Humidity 91%
Rainfall 0.00 in
Snow Depth Not available.
6:39 AM 6:29 PM
Waning Crescent, 1% visible
METAR PGUM 251154Z 07009KT 10SM FEW023 SCT040 27/23 A2992 RMK AO2 SLP124 70002 T02720228 10300 20267 51015

Get Your Daily Forecast Email!

Thanks for signing up!

Be on the lookout for a verification email in your inbox.

You'll start receiving the daily forecast at 8 AM.

×

10-Day Weather Forecast

Almanac

Astronomy

Feb. 25, 2017 Rise Set
Actual Time
Civil Twilight
Nautical Twilight
Astronomical Twilight
Moon
Length of Visible Light
Length of Day
Tomorrow will be .
, % of the Moon is Illuminated

Today's Extremes

State Highs State Lows

Community

WunderPhotos

Upload Photos

1,962,540 photos uploaded!

WunderBlog® & News

Nearby

Air Quality

  Air Quality AQ Index Pollutant
Not available.

Snow Depth

Station Depth Elevation

Earthquake Activity

City Distance Mag. Time & Date
Minimum magnitude displayed is 2.5.

Coastal Water Temperatures

Place Temperature

Stations

Nearby Weather Stations

Station Location Temp. Windchill Dew Point Humidity Wind Precip. Elev Updated Type
                   

Watches & Warnings

There are currently no watches in effect.